createdAt,value
2022-09-16T00:01:11.925Z,12.30
2022-09-16T00:03:40.432Z,12.30
2022-09-16T00:06:18.909Z,12.30
2022-09-16T00:08:47.139Z,12.30
2022-09-16T00:11:15.745Z,12.40
2022-09-16T00:13:43.969Z,12.20
2022-09-16T00:16:16.721Z,12.20
2022-09-16T00:18:44.783Z,12.20
2022-09-16T00:21:14.370Z,12.20
2022-09-16T00:23:42.435Z,12.10
2022-09-16T00:26:10.523Z,12.10
2022-09-16T00:28:38.570Z,12.20
2022-09-16T00:31:06.959Z,12.20
2022-09-16T00:33:35.023Z,12.20
2022-09-16T00:36:07.881Z,12.20
2022-09-16T00:38:37.226Z,12.20
2022-09-16T00:41:06.116Z,12.20
2022-09-16T00:43:51.914Z,12.20
2022-09-16T00:46:24.047Z,12.00
2022-09-16T00:48:52.315Z,12.00
2022-09-16T00:51:21.112Z,12.00
2022-09-16T00:53:56.943Z,12.00
2022-09-16T00:56:27.158Z,11.90
2022-09-16T00:59:03.242Z,11.90
2022-09-16T01:01:31.948Z,12.00
2022-09-16T01:04:04.208Z,12.10
2022-09-16T01:06:33.336Z,12.10
2022-09-16T01:09:03.590Z,12.10
2022-09-16T01:11:31.856Z,12.20
2022-09-16T01:14:20.423Z,12.10
2022-09-16T01:16:58.251Z,12.20
2022-09-16T01:19:46.552Z,12.20
2022-09-16T01:22:29.010Z,12.10
2022-09-16T01:25:05.128Z,12.10
2022-09-16T01:28:18.969Z,12.10
2022-09-16T01:31:04.176Z,12.10
2022-09-16T01:33:42.088Z,12.00
2022-09-16T01:36:26.667Z,12.00
2022-09-16T01:39:08.063Z,12.00
2022-09-16T01:41:46.273Z,12.00
2022-09-16T01:44:26.818Z,12.00
2022-09-16T01:47:03.572Z,12.00
2022-09-16T01:49:41.237Z,11.90
2022-09-16T01:52:21.348Z,11.90
2022-09-16T01:54:55.742Z,11.80
2022-09-16T01:57:29.162Z,11.80
2022-09-16T02:00:09.133Z,11.90
2022-09-16T02:02:42.910Z,11.90
2022-09-16T02:05:14.061Z,12.00
2022-09-16T02:07:46.194Z,12.00
2022-09-16T02:10:19.525Z,12.00
2022-09-16T02:12:50.157Z,12.00
2022-09-16T02:15:22.321Z,12.00
2022-09-16T02:17:57.599Z,11.90
2022-09-16T02:20:29.212Z,11.90
2022-09-16T02:23:01.236Z,11.90
2022-09-16T02:25:32.807Z,11.90
2022-09-16T02:28:06.854Z,11.90
2022-09-16T02:30:36.745Z,11.90
2022-09-16T02:33:09.656Z,11.80
2022-09-16T02:35:39.829Z,11.80
2022-09-16T02:38:14.115Z,11.80
2022-09-16T02:40:48.874Z,11.80
2022-09-16T02:43:17.525Z,11.70
2022-09-16T02:45:53.838Z,11.70
2022-09-16T02:48:32.150Z,11.70
2022-09-16T02:51:10.933Z,11.80
2022-09-16T02:53:48.015Z,11.80
2022-09-16T02:56:23.365Z,11.80
2022-09-16T02:58:51.667Z,11.80
2022-09-16T03:01:21.398Z,11.80
2022-09-16T03:03:51.055Z,11.80
2022-09-16T03:06:25.012Z,11.70
2022-09-16T03:08:55.365Z,11.70
2022-09-16T03:11:55.106Z,11.70
2022-09-16T03:14:49.729Z,11.70
2022-09-16T03:17:31.128Z,11.70
2022-09-16T03:20:11.961Z,11.70
2022-09-16T03:22:51.357Z,11.70
2022-09-16T03:25:35.205Z,11.60
2022-09-16T03:28:10.649Z,11.60
2022-09-16T03:30:44.687Z,11.60
2022-09-16T03:33:23.089Z,11.60
2022-09-16T03:35:57.501Z,11.70
2022-09-16T03:38:26.025Z,11.60
2022-09-16T03:40:54.590Z,11.70
2022-09-16T03:43:22.637Z,11.60
2022-09-16T03:45:52.382Z,11.60
2022-09-16T03:48:20.604Z,11.60
2022-09-16T03:50:48.649Z,11.60
2022-09-16T03:53:18.026Z,11.60
2022-09-16T03:55:46.646Z,11.60
2022-09-16T03:58:14.645Z,11.70
2022-09-16T04:00:42.648Z,11.70
2022-09-16T04:03:10.642Z,11.70
2022-09-16T04:05:38.637Z,11.70
2022-09-16T04:08:06.609Z,11.70
2022-09-16T04:10:35.994Z,11.70
2022-09-16T04:13:04.257Z,11.60
2022-09-16T04:15:34.910Z,11.60
2022-09-16T04:18:03.156Z,11.50
2022-09-16T04:20:31.159Z,11.50
2022-09-16T04:22:59.141Z,11.50
2022-09-16T04:25:27.211Z,11.40
2022-09-16T04:27:57.202Z,11.40
2022-09-16T04:30:25.268Z,11.30
2022-09-16T04:32:54.707Z,11.30
2022-09-16T04:35:23.535Z,11.30
2022-09-16T04:37:51.589Z,11.30
2022-09-16T04:40:19.679Z,11.30
2022-09-16T04:42:50.318Z,11.30
2022-09-16T04:45:20.018Z,11.20
2022-09-16T04:47:48.054Z,11.30
2022-09-16T04:50:16.103Z,11.30
2022-09-16T04:52:44.299Z,11.30
2022-09-16T04:55:12.306Z,11.30
2022-09-16T04:57:40.289Z,11.40
2022-09-16T05:00:09.840Z,11.40
2022-09-16T05:02:39.170Z,11.40
2022-09-16T05:05:08.198Z,11.50
2022-09-16T05:07:36.171Z,11.40
2022-09-16T05:10:04.362Z,11.30
2022-09-16T05:12:32.471Z,11.30
2022-09-16T05:15:00.508Z,11.30
2022-09-16T05:17:49.733Z,11.30
2022-09-16T05:20:20.363Z,11.20
2022-09-16T05:22:51.118Z,11.20
2022-09-16T05:25:19.471Z,11.20
2022-09-16T05:27:47.464Z,11.20
2022-09-16T05:30:17.290Z,11.10
2022-09-16T05:32:45.302Z,11.20
2022-09-16T05:35:13.312Z,11.20
2022-09-16T05:37:42.652Z,11.20
2022-09-16T05:40:10.879Z,11.20
2022-09-16T05:42:38.901Z,11.30
2022-09-16T05:45:08.098Z,11.30
2022-09-16T05:47:36.110Z,11.40
2022-09-16T05:50:04.197Z,11.40
2022-09-16T05:52:32.198Z,11.50
2022-09-16T05:55:01.558Z,11.60
2022-09-16T05:57:31.810Z,11.60
2022-09-16T06:00:02.689Z,11.60
2022-09-16T06:02:38.166Z,11.60
2022-09-16T06:05:06.653Z,11.50
2022-09-16T06:07:34.645Z,11.50
2022-09-16T06:10:04.134Z,11.50
2022-09-16T06:12:32.111Z,11.40
2022-09-16T06:15:00.537Z,11.50
2022-09-16T06:17:28.572Z,11.50
2022-09-16T06:19:56.532Z,11.50
2022-09-16T06:22:24.769Z,11.60
2022-09-16T06:24:53.042Z,11.60
2022-09-16T06:27:22.922Z,11.60
2022-09-16T06:29:50.874Z,11.70
2022-09-16T06:32:18.870Z,11.80
2022-09-16T06:34:46.849Z,11.80
2022-09-16T06:37:14.894Z,11.90
2022-09-16T06:39:42.974Z,12.00
2022-09-16T06:42:10.972Z,12.20
2022-09-16T06:44:43.472Z,12.30
2022-09-16T06:47:11.558Z,12.50
2022-09-16T06:49:39.529Z,12.60
2022-09-16T06:52:09.382Z,12.80
2022-09-16T06:54:37.385Z,12.90
2022-09-16T06:57:11.395Z,13.10
2022-09-16T06:59:40.245Z,13.30
2022-09-16T07:02:10.999Z,13.50
2022-09-16T07:04:39.363Z,13.60
2022-09-16T07:07:10.106Z,13.80
2022-09-16T07:09:38.678Z,13.90
2022-09-16T07:12:07.886Z,14.10
2022-09-16T07:14:36.069Z,14.30
2022-09-16T07:17:04.470Z,14.40
2022-09-16T07:19:33.914Z,14.50
2022-09-16T07:22:02.051Z,14.60
2022-09-16T07:24:30.083Z,14.80
2022-09-16T07:26:58.055Z,14.90
2022-09-16T07:29:26.106Z,15.10
2022-09-16T07:31:54.206Z,15.20
2022-09-16T07:34:22.317Z,15.30
2022-09-16T07:36:51.694Z,15.60
2022-09-16T07:39:21.089Z,15.70
2022-09-16T07:41:49.751Z,15.30
2022-09-16T07:44:19.684Z,14.70
2022-09-16T07:46:48.097Z,14.40
2022-09-16T07:49:17.097Z,14.10
2022-09-16T07:51:45.552Z,13.90
2022-09-16T07:54:17.317Z,13.60
2022-09-16T07:56:46.128Z,13.40
2022-09-16T07:59:18.819Z,13.40
2022-09-16T08:01:48.242Z,13.70
2022-09-16T08:04:16.994Z,13.90
2022-09-16T08:06:44.988Z,14.20
2022-09-16T08:09:37.125Z,14.30
2022-09-16T08:12:05.609Z,14.50
2022-09-16T08:14:33.831Z,14.80
2022-09-16T08:17:03.378Z,14.90
2022-09-16T08:19:31.406Z,15.10
2022-09-16T08:21:59.397Z,15.30
2022-09-16T08:24:28.738Z,15.40
2022-09-16T08:29:29.775Z,16.00
2022-09-16T08:31:57.851Z,16.30
2022-09-16T08:34:26.022Z,16.50
2022-09-16T08:36:54.122Z,16.80
2022-09-16T08:39:22.546Z,16.80
2022-09-16T08:42:08.942Z,17.00
2022-09-16T08:44:44.573Z,17.20
2022-09-16T08:47:26.212Z,17.50
2022-09-16T08:49:54.610Z,17.90
2022-09-16T08:52:31.907Z,18.00
2022-09-16T08:55:03.223Z,17.90
2022-09-16T08:57:39.479Z,17.90
2022-09-16T09:00:14.331Z,17.70
2022-09-16T09:02:48.831Z,17.10
2022-09-16T09:05:19.585Z,16.40
2022-09-16T09:07:55.801Z,15.70
2022-09-16T09:10:29.850Z,15.10
2022-09-16T09:13:10.244Z,14.90
2022-09-16T09:15:43.254Z,14.90
2022-09-16T09:18:21.298Z,14.60
2022-09-16T09:20:57.902Z,14.60
2022-09-16T09:23:45.176Z,14.60
2022-09-16T09:26:20.930Z,14.60
2022-09-16T09:29:04.442Z,14.60
2022-09-16T09:31:42.396Z,14.50
2022-09-16T09:34:20.652Z,14.70
2022-09-16T09:37:00.672Z,15.00
2022-09-16T09:39:41.266Z,15.30
2022-09-16T09:42:17.722Z,15.60
2022-09-16T09:45:01.345Z,16.00
2022-09-16T09:47:35.070Z,16.40
2022-09-16T09:50:13.177Z,16.90
2022-09-16T09:52:47.801Z,17.00
2022-09-16T09:55:18.411Z,16.90
2022-09-16T09:58:00.680Z,16.70
2022-09-16T10:00:30.147Z,16.30
2022-09-16T10:03:06.103Z,16.00
2022-09-16T10:05:34.597Z,15.80
2022-09-16T10:08:10.018Z,15.70
2022-09-16T10:10:48.711Z,16.40
2022-09-16T10:13:17.906Z,17.00
2022-09-16T10:15:52.021Z,17.50
2022-09-16T10:18:29.656Z,17.90
2022-09-16T10:21:03.242Z,18.30
2022-09-16T10:23:31.913Z,18.60
2022-09-16T10:26:08.994Z,18.80
2022-09-16T10:28:37.011Z,19.20
2022-09-16T10:31:08.842Z,19.50
2022-09-16T10:33:41.925Z,19.50
2022-09-16T10:36:12.122Z,19.50
2022-09-16T10:38:42.099Z,19.60
2022-09-16T10:41:15.845Z,20.00
2022-09-16T10:43:50.939Z,20.20
2022-09-16T10:46:21.063Z,19.80
2022-09-16T10:48:51.869Z,17.80
2022-09-16T10:51:25.747Z,16.70
2022-09-16T10:53:55.868Z,16.20
2022-09-16T10:56:29.278Z,16.00
2022-09-16T10:59:05.878Z,16.10
2022-09-16T11:01:47.639Z,16.30
2022-09-16T11:04:44.361Z,16.80
2022-09-16T11:07:24.143Z,17.40
2022-09-16T11:10:03.794Z,17.60
2022-09-16T11:13:16.366Z,17.50
2022-09-16T11:16:00.424Z,17.20
2022-09-16T11:18:43.772Z,16.70
2022-09-16T11:21:26.342Z,16.60
2022-09-16T11:24:10.387Z,17.00
2022-09-16T11:26:45.655Z,17.30
2022-09-16T11:29:40.742Z,17.70
2022-09-16T11:32:17.947Z,17.80
2022-09-16T11:34:59.591Z,18.00
2022-09-16T11:37:32.819Z,18.20
2022-09-16T11:40:16.784Z,18.10
2022-09-16T11:42:49.201Z,18.60
2022-09-16T11:45:31.056Z,18.70
2022-09-16T11:48:22.279Z,18.90
2022-09-16T11:51:01.001Z,19.00
2022-09-16T11:53:58.539Z,18.80
2022-09-16T11:56:37.238Z,18.70
2022-09-16T11:59:14.133Z,18.50
2022-09-16T12:01:45.572Z,18.70
2022-09-16T12:04:21.801Z,19.00
2022-09-16T12:06:57.213Z,19.30
2022-09-16T12:09:32.682Z,19.20
2022-09-16T12:12:12.052Z,19.00
2022-09-16T12:14:43.754Z,18.80
2022-09-16T12:17:17.192Z,18.90
2022-09-16T12:19:50.235Z,18.60
2022-09-16T12:22:23.909Z,18.60
2022-09-16T12:24:58.874Z,18.70
2022-09-16T12:27:38.554Z,18.50
2022-09-16T12:30:13.978Z,18.20
2022-09-16T12:32:51.650Z,17.70
2022-09-16T12:35:25.337Z,17.40
2022-09-16T12:37:57.494Z,17.50
2022-09-16T12:40:29.019Z,17.50
2022-09-16T12:43:21.877Z,17.50
2022-09-16T12:46:28.274Z,17.40
2022-09-16T12:49:22.172Z,17.40
2022-09-16T12:52:13.313Z,17.20
2022-09-16T12:55:23.600Z,17.30
2022-09-16T12:58:08.678Z,17.30
2022-09-16T13:00:42.614Z,17.00
2022-09-16T13:03:16.158Z,16.60
2022-09-16T13:05:47.502Z,16.20
2022-09-16T13:08:23.239Z,15.60
2022-09-16T13:11:28.395Z,15.20
2022-09-16T13:13:51.114Z,15.20
2022-09-16T13:16:33.293Z,15.20
2022-09-16T13:19:36.717Z,15.00
2022-09-16T13:22:16.274Z,14.80
2022-09-16T13:24:47.710Z,14.60
2022-09-16T13:27:34.484Z,14.60
2022-09-16T13:30:26.865Z,14.50
2022-09-16T13:33:04.491Z,14.50
2022-09-16T13:35:41.711Z,14.50
2022-09-16T13:38:37.409Z,14.30
2022-09-16T13:41:06.378Z,14.20
2022-09-16T13:43:38.171Z,14.20
2022-09-16T13:46:09.296Z,14.20
2022-09-16T13:48:42.699Z,14.10
2022-09-16T13:51:18.452Z,14.00
2022-09-16T13:53:49.235Z,13.90
2022-09-16T13:56:38.831Z,13.90
2022-09-16T13:59:21.730Z,13.80
2022-09-16T14:02:00.769Z,13.70
2022-09-16T14:04:42.262Z,13.70
2022-09-16T14:07:23.676Z,13.40
2022-09-16T14:10:00.435Z,13.50
2022-09-16T14:12:38.979Z,13.50
2022-09-16T14:15:09.651Z,13.40
2022-09-16T14:17:42.144Z,13.50
2022-09-16T14:20:17.193Z,13.40
2022-09-16T14:22:45.957Z,13.30
2022-09-16T14:25:29.940Z,13.40
2022-09-16T14:28:18.861Z,13.30
2022-09-16T14:30:50.538Z,13.30
2022-09-16T14:33:22.202Z,13.20
2022-09-16T14:35:50.890Z,13.30
2022-09-16T14:38:43.751Z,13.30
2022-09-16T14:41:11.549Z,13.30
2022-09-16T14:43:40.195Z,13.20
2022-09-16T14:46:09.654Z,13.10
2022-09-16T14:48:41.743Z,13.00
2022-09-16T14:51:16.742Z,13.00
2022-09-16T14:54:11.616Z,13.00
2022-09-16T14:56:40.704Z,13.00
2022-09-16T14:59:13.069Z,13.10
2022-09-16T15:01:43.310Z,13.10
2022-09-16T15:04:18.466Z,13.00
2022-09-16T15:06:52.737Z,12.90
2022-09-16T15:09:26.814Z,12.90
2022-09-16T15:11:58.406Z,13.00
2022-09-16T15:14:27.680Z,12.90
2022-09-16T15:17:00.540Z,13.00
2022-09-16T15:19:33.717Z,13.00
2022-09-16T15:22:02.145Z,13.10
2022-09-16T15:24:33.709Z,13.10
2022-09-16T15:27:02.546Z,13.10
2022-09-16T15:29:34.077Z,13.10
2022-09-16T15:32:18.065Z,13.20
2022-09-16T15:34:46.467Z,13.20
2022-09-16T15:37:32.021Z,13.30
2022-09-16T15:40:11.056Z,13.30
2022-09-16T15:42:39.542Z,13.30
2022-09-16T15:45:17.737Z,13.30
2022-09-16T15:47:58.240Z,13.30
2022-09-16T15:50:30.033Z,13.30
2022-09-16T15:53:02.685Z,13.30
2022-09-16T15:55:36.669Z,13.30
2022-09-16T15:58:09.122Z,13.30
2022-09-16T16:01:00.565Z,13.30
2022-09-16T16:03:33.635Z,13.40
2022-09-16T16:06:04.908Z,13.50
2022-09-16T16:08:42.237Z,13.50
2022-09-16T16:11:12.360Z,13.40
2022-09-16T16:13:40.411Z,13.40
2022-09-16T16:16:09.509Z,13.40
2022-09-16T16:18:39.787Z,13.40
2022-09-16T16:21:09.290Z,13.30
2022-09-16T16:23:37.941Z,13.30
2022-09-16T16:26:06.946Z,13.40
2022-09-16T16:28:35.996Z,13.30
2022-09-16T16:31:12.128Z,13.20
2022-09-16T16:33:46.104Z,13.20
2022-09-16T16:36:15.773Z,13.20
2022-09-16T16:38:45.493Z,13.20
2022-09-16T16:41:13.977Z,13.20
2022-09-16T16:43:42.066Z,13.20
2022-09-16T16:46:10.139Z,13.30
2022-09-16T16:48:39.116Z,13.30
2022-09-16T16:51:11.262Z,13.30
2022-09-16T16:53:39.944Z,13.30
2022-09-16T16:56:14.799Z,13.20
2022-09-16T16:58:43.987Z,13.20
2022-09-16T17:01:13.896Z,13.20
2022-09-16T17:03:42.550Z,13.20
2022-09-16T17:06:12.498Z,13.20
2022-09-16T17:08:40.481Z,13.20
2022-09-16T17:11:10.185Z,13.20
2022-09-16T17:13:38.972Z,13.20
2022-09-16T17:16:07.822Z,13.20
2022-09-16T17:18:36.426Z,13.20
2022-09-16T17:21:06.342Z,13.20
2022-09-16T17:23:36.053Z,13.10
2022-09-16T17:26:04.862Z,13.20
2022-09-16T17:28:33.494Z,13.10
2022-09-16T17:31:01.616Z,13.00
2022-09-16T17:33:30.968Z,13.00
2022-09-16T17:36:02.938Z,13.00
2022-09-16T17:38:31.209Z,13.00
2022-09-16T17:41:04.903Z,13.00
2022-09-16T17:43:33.806Z,13.00
2022-09-16T17:46:02.376Z,13.00
2022-09-16T17:48:30.973Z,13.00
2022-09-16T17:50:59.362Z,13.00
2022-09-16T17:53:27.481Z,13.00
2022-09-16T17:56:05.161Z,12.90
2022-09-16T17:58:34.502Z,13.00
2022-09-16T18:01:07.977Z,13.00
2022-09-16T18:03:36.577Z,13.00
2022-09-16T18:06:06.618Z,13.00
2022-09-16T18:08:34.680Z,13.00
2022-09-16T18:11:04.987Z,13.00
2022-09-16T18:13:33.011Z,13.00
2022-09-16T18:16:07.054Z,13.00
2022-09-16T18:18:36.648Z,13.00
2022-09-16T18:21:06.410Z,12.90
2022-09-16T18:23:34.465Z,12.90
2022-09-16T18:26:07.091Z,12.90
2022-09-16T18:28:58.176Z,12.90
2022-09-16T18:31:26.152Z,12.80
2022-09-16T18:33:55.458Z,12.80
2022-09-16T18:36:25.417Z,12.70
2022-09-16T18:38:54.650Z,12.70
2022-09-16T18:41:26.053Z,12.70
2022-09-16T18:43:55.893Z,12.70
2022-09-16T18:46:26.840Z,12.60
2022-09-16T18:48:55.517Z,12.60
2022-09-16T18:51:25.431Z,12.60
2022-09-16T18:53:55.570Z,12.60
2022-09-16T18:56:26.442Z,12.70
2022-09-16T18:59:20.013Z,12.70
2022-09-16T19:01:44.695Z,12.60
2022-09-16T19:04:13.887Z,12.60
2022-09-16T19:06:43.445Z,12.60
2022-09-16T19:09:13.374Z,12.50
2022-09-16T19:11:43.369Z,12.60
2022-09-16T19:14:14.075Z,12.50
2022-09-16T19:16:44.100Z,12.50
2022-09-16T19:19:13.822Z,12.50
2022-09-16T19:21:42.349Z,12.50
2022-09-16T19:24:15.057Z,12.50
2022-09-16T19:26:45.603Z,12.50
2022-09-16T19:29:15.082Z,12.40
2022-09-16T19:31:45.441Z,12.40
2022-09-16T19:34:14.458Z,12.40
2022-09-16T19:36:43.449Z,12.30
2022-09-16T19:39:12.991Z,12.40
2022-09-16T19:41:42.902Z,12.40
2022-09-16T19:44:14.489Z,12.40
2022-09-16T19:46:43.427Z,12.50
2022-09-16T19:49:15.876Z,12.40
2022-09-16T19:51:44.105Z,12.40
2022-09-16T19:54:12.461Z,12.40
2022-09-16T19:56:40.993Z,12.40
2022-09-16T19:59:09.117Z,12.40
2022-09-16T20:01:39.013Z,12.50
2022-09-16T20:04:09.059Z,12.50
2022-09-16T20:06:40.523Z,12.50
2022-09-16T20:09:11.427Z,12.50
2022-09-16T20:11:41.229Z,12.50
2022-09-16T20:14:13.523Z,12.50
2022-09-16T20:16:43.891Z,12.50
2022-09-16T20:19:13.768Z,12.60
2022-09-16T20:21:42.820Z,12.60
2022-09-16T20:24:15.310Z,12.60
2022-09-16T20:26:43.450Z,12.60
2022-09-16T20:29:11.510Z,12.60
2022-09-16T20:31:39.688Z,12.60
2022-09-16T20:34:09.191Z,12.50
2022-09-16T20:36:39.309Z,12.50
2022-09-16T20:39:08.882Z,12.50
2022-09-16T20:41:38.370Z,12.60
2022-09-16T20:44:06.978Z,12.70
2022-09-16T20:46:36.398Z,12.80
2022-09-16T20:49:09.368Z,12.90
2022-09-16T20:51:38.918Z,12.90
2022-09-16T20:54:09.073Z,12.90
2022-09-16T20:56:39.383Z,13.10
2022-09-16T20:59:08.521Z,13.10
2022-09-16T21:01:38.157Z,13.00
2022-09-16T21:04:07.488Z,12.90
2022-09-16T21:06:36.727Z,12.90
2022-09-16T21:09:08.776Z,13.00
2022-09-16T21:11:37.336Z,13.10
2022-09-16T21:14:07.599Z,13.00
2022-09-16T21:16:37.163Z,13.10
2022-09-16T21:19:09.179Z,13.00
2022-09-16T21:21:39.557Z,13.00
2022-09-16T21:24:09.814Z,12.90
2022-09-16T21:26:39.241Z,13.00
2022-09-16T21:29:09.846Z,13.10
2022-09-16T21:31:39.149Z,13.10
2022-09-16T21:34:08.254Z,13.10
2022-09-16T21:36:37.638Z,13.10
2022-09-16T21:39:05.951Z,13.20
2022-09-16T21:41:35.379Z,13.20
2022-09-16T21:44:03.879Z,13.20
2022-09-16T21:46:33.476Z,13.30
2022-09-16T21:49:03.200Z,13.20
2022-09-16T21:51:35.227Z,13.20
2022-09-16T21:54:04.193Z,13.20
2022-09-16T21:56:32.858Z,13.20
2022-09-16T21:59:02.186Z,13.20
2022-09-16T22:01:31.656Z,13.20
2022-09-16T22:04:02.122Z,13.10
2022-09-16T22:06:30.643Z,13.20
2022-09-16T22:09:00.885Z,13.20
2022-09-16T22:11:30.586Z,13.10
2022-09-16T22:14:00.561Z,13.00
2022-09-16T22:16:31.887Z,13.00
2022-09-16T22:19:01.667Z,13.10
2022-09-16T22:21:32.358Z,13.20
2022-09-16T22:24:01.911Z,13.10
2022-09-16T22:26:31.200Z,13.10
2022-09-16T22:29:00.622Z,13.10
2022-09-16T22:31:32.725Z,13.10
2022-09-16T22:34:02.507Z,13.10
2022-09-16T22:36:32.471Z,13.10
2022-09-16T22:39:04.041Z,13.00
2022-09-16T22:41:32.503Z,13.00
2022-09-16T22:44:00.826Z,12.90
2022-09-16T22:46:32.536Z,12.90
2022-09-16T22:49:01.641Z,12.90
2022-09-16T22:51:30.041Z,12.90
2022-09-16T22:53:58.260Z,12.80
2022-09-16T22:56:31.695Z,12.80
2022-09-16T22:59:00.870Z,12.80
2022-09-16T23:01:32.863Z,12.80
2022-09-16T23:04:02.945Z,12.80
2022-09-16T23:06:32.550Z,12.90
2022-09-16T23:09:01.356Z,12.80
2022-09-16T23:11:31.231Z,12.80
2022-09-16T23:14:00.187Z,12.80
2022-09-16T23:16:31.681Z,12.80
2022-09-16T23:19:02.007Z,12.80
2022-09-16T23:21:30.464Z,12.80
2022-09-16T23:24:01.442Z,12.80
2022-09-16T23:26:31.970Z,12.70
2022-09-16T23:29:01.558Z,12.70
2022-09-16T23:31:32.954Z,12.70
2022-09-16T23:34:01.811Z,12.70
2022-09-16T23:36:29.926Z,12.60
2022-09-16T23:39:01.182Z,12.70
2022-09-16T23:41:29.526Z,12.70
2022-09-16T23:43:57.833Z,12.70
2022-09-16T23:46:28.780Z,12.70
2022-09-16T23:48:58.653Z,12.80
2022-09-16T23:51:28.992Z,12.70
2022-09-16T23:53:58.136Z,12.60
2022-09-16T23:56:27.229Z,12.70
2022-09-16T23:59:00.603Z,12.70
